Time;durP1;ratioP1;P1;durP2;ratioP2;P2;SDS_P1;SDS_P2;PMS_P1;PMS_P2;Temp;Humidity;BMP_temperature;BMP_pressure;BME280_temperature;BME280_humidity;BME280_pressure;Samples;Min_cycle;Max_cycle;Signal;HPM_P1;HPM_P2
2022/01/21 00:00:32;;;;;;;;;;;;;;;;;;5064845;28;19912;-69
2022/01/21 00:02:58;;;;;;;;;;;;;;;;;;5064449;28;19916;-69
2022/01/21 00:05:23;;;;;;;;;;;;;;;;;;5065026;28;19925;-69
2022/01/21 00:07:48;;;;;;;;;;;;;;;;;;5065692;28;19912;-69
2022/01/21 00:10:14;;;;;;;;;;;;;;;;;;5055141;28;20432;-69
2022/01/21 00:12:39;;;;;;;;;;;;;;;;;;5061934;28;20356;-69
2022/01/21 00:15:04;;;;;;;;;;;;;;;;;;5065185;28;19956;-69
2022/01/21 00:17:29;;;;;;;;;;;;;;;;;;5064664;28;19912;-69
2022/01/21 00:30:11;;;;;;;;;;;;;;;;;;5062737;28;20058;-69
2022/01/21 00:30:51;;;;;;;;;;;;;;;;;;5064060;28;19981;-69
2022/01/21 00:33:16;;;;;;;;;;;;;;;;;;5061039;28;19920;-69
2022/01/21 00:35:41;;;;;;;;;;;;;;;;;;5061366;28;19916;-69
2022/01/21 00:38:06;;;;;;;;;;;;;;;;;;5063370;28;19952;-69
2022/01/21 00:40:33;;;;;;;;;;;;;;;;;;5063373;28;19933;-69
2022/01/21 00:43:16;;;;;;;;;;;;;;;;;;5061737;28;19916;-69
2022/01/21 00:45:42;;;;;;;;;;;;;;;;;;5063371;28;19956;-69
2022/01/21 00:48:07;;;;;;;;;;;;;;;;;;5065033;28;19955;-69
2022/01/21 00:50:32;;;;;;;;;;;;;;;;;;5065621;28;19912;-69
2022/01/21 00:52:57;;;;;;;;;;;;;;;;;;5064581;28;20304;-69
2022/01/21 00:55:22;;;;;;;;;;;;;;;;;;5064523;28;19928;-69
2022/01/21 00:57:47;;;;;;;;;;;;;;;;;;5063596;28;20536;-69
2022/01/21 01:00:12;;;;;;;;;;;;;;;;;;5064818;28;19920;-69
2022/01/21 01:02:38;;;;;;;;;;;;;;;;;;5065009;28;19919;-69
2022/01/21 01:05:03;;;;;;;;;;;;;;;;;;5064215;28;19928;-69
2022/01/21 01:07:28;;;;;;;;;;;;;;;;;;5064732;28;19912;-69
2022/01/21 01:09:55;;;;;;;;;;;;;;;;;;5064704;28;20007;-68
2022/01/21 01:12:39;;;;;;;;;;;;;;;;;;5064719;28;19915;-68
2022/01/21 01:20:31;;;;;;;;;;;;;;;;;;5061323;28;19941;-69
2022/01/21 01:23:09;;;;;;;;;;;;;;;;;;5061474;28;20615;-68
2022/01/21 01:28:18;;;;;;;;;;;;;;;;;;5064557;28;20295;-68
2022/01/21 01:30:43;;;;;;;;;;;;;;;;;;5060996;28;21763;-69
2022/01/21 01:33:10;;;;;;;;;;;;;;;;;;5062008;28;20361;-69
2022/01/21 01:35:36;;;;;;;;;;;;;;;;;;5063138;28;20003;-69
2022/01/21 01:51:53;;;;;;;;;;;;;;;;;;4984487;28;19953;-68
2022/01/21 01:54:18;;;;;;;;;;;;;;;;;;4984938;28;19980;-68
2022/01/21 01:56:44;;;;;;;;;;;;;;;;;;4981181;28;20413;-68
2022/01/21 01:59:09;;;;;;;;;;;;;;;;;;4982486;28;19928;-68
2022/01/21 02:03:59;;;;;;;;;;;;;;;;;;5057347;22;20131;-70
2022/01/21 02:06:24;;;;;;;;;;;;;;;;;;5055076;28;19921;-70
2022/01/21 02:08:49;;;;;;;;;;;;;;;;;;5055097;28;20054;-70
2022/01/21 02:11:14;;;;;;;;;;;;;;;;;;5057682;28;19962;-70
2022/01/21 02:13:44;;;;;;;;;;;;;;;;;;5055332;28;20019;-70
2022/01/21 02:16:17;;;;;;;;;;;;;;;;;;5055207;28;19928;-70
2022/01/21 02:21:30;;;;;;;;;;;;;;;;;;5059978;28;20020;-70
2022/01/21 02:23:55;;;;;;;;;;;;;;;;;;5060004;28;19922;-70
2022/01/21 02:26:20;;;;;;;;;;;;;;;;;;5060486;28;19913;-70
2022/01/21 02:28:45;;;;;;;;;;;;;;;;;;5059808;28;20011;-70
2022/01/21 02:31:10;;;;;;;;;;;;;;;;;;5059749;28;20033;-70
2022/01/21 02:33:35;;;;;;;;;;;;;;;;;;5060197;28;20150;-70
2022/01/21 02:36:00;;;;;;;;;;;;;;;;;;5060262;28;19925;-70
2022/01/21 02:38:25;;;;;;;;;;;;;;;;;;5059126;28;19916;-70
2022/01/21 02:40:50;;;;;;;;;;;;;;;;;;5059724;28;20084;-70
2022/01/21 02:43:16;;;;;;;;;;;;;;;;;;5059223;28;20035;-71
2022/01/21 02:45:45;;;;;;;;;;;;;;;;;;5059827;28;20333;-71
2022/01/21 02:48:10;;;;;;;;;;;;;;;;;;5058871;28;20381;-71
2022/01/21 02:50:35;;;;;;;;;;;;;;;;;;5058870;28;20186;-71
2022/01/21 02:55:38;;;;;;;;;;;;;;;;;;5059151;28;19920;-71
2022/01/21 02:58:03;;;;;;;;;;;;;;;;;;5058823;28;19989;-71
2022/01/21 03:00:28;;;;;;;;;;;;;;;;;;5058893;28;20143;-71
2022/01/21 03:02:53;;;;;;;;;;;;;;;;;;5058734;28;20019;-71
2022/01/21 03:05:19;;;;;;;;;;;;;;;;;;5059372;28;19986;-71
2022/01/21 03:07:44;;;;;;;;;;;;;;;;;;5058628;28;20277;-71
2022/01/21 03:10:09;;;;;;;;;;;;;;;;;;5060129;28;20166;-71
2022/01/21 03:12:34;;;;;;;;;;;;;;;;;;5058739;28;20041;-71
2022/01/21 03:14:59;;;;;;;;;;;;;;;;;;5058642;28;19935;-71
2022/01/21 03:17:25;;;;;;;;;;;;;;;;;;5059241;28;19916;-71
2022/01/21 03:19:50;;;;;;;;;;;;;;;;;;5058325;28;20757;-71
2022/01/21 03:22:15;;;;;;;;;;;;;;;;;;5058796;28;19920;-71
2022/01/21 03:24:40;;;;;;;;;;;;;;;;;;5057874;28;19916;-71
2022/01/21 03:27:05;;;;;;;;;;;;;;;;;;5058823;28;20386;-71
2022/01/21 03:29:30;;;;;;;;;;;;;;;;;;5059132;28;20415;-71
2022/01/21 03:31:55;;;;;;;;;;;;;;;;;;5058295;28;20408;-71
2022/01/21 03:34:21;;;;;;;;;;;;;;;;;;5057751;28;19993;-71
2022/01/21 03:36:46;;;;;;;;;;;;;;;;;;5058533;28;19951;-71
2022/01/21 03:39:11;;;;;;;;;;;;;;;;;;5057644;28;20210;-71
2022/01/21 03:41:36;;;;;;;;;;;;;;;;;;5058079;28;19919;-71
2022/01/21 03:44:01;;;;;;;;;;;;;;;;;;5058052;28;20331;-68
2022/01/21 03:46:28;;;;;;;;;;;;;;;;;;5058355;28;19919;-68
2022/01/21 03:48:54;;;;;;;;;;;;;;;;;;5057777;28;19916;-68
2022/01/21 03:51:19;;;;;;;;;;;;;;;;;;5058725;28;20584;-68
2022/01/21 03:53:46;;;;;;;;;;;;;;;;;;5058171;28;19997;-69
2022/01/21 03:56:11;;;;;;;;;;;;;;;;;;5059166;28;19917;-70
2022/01/21 03:58:36;;;;;;;;;;;;;;;;;;5058649;28;20500;-70
2022/01/21 04:01:01;;;;;;;;;;;;;;;;;;5057968;28;19921;-70
2022/01/21 04:03:27;;;;;;;;;;;;;;;;;;5049644;28;20209;-70
2022/01/21 04:05:52;;;;;;;;;;;;;;;;;;5058136;28;20387;-70
2022/01/21 04:08:17;;;;;;;;;;;;;;;;;;5058140;28;19960;-70
2022/01/21 04:10:42;;;;;;;;;;;;;;;;;;5057600;28;19920;-70
2022/01/21 04:13:14;;;;;;;;;;;;;;;;;;5057335;28;20123;-70
2022/01/21 04:15:39;;;;;;;;;;;;;;;;;;5058088;28;20381;-69
2022/01/21 04:18:04;;;;;;;;;;;;;;;;;;5057685;28;20096;-69
2022/01/21 04:20:29;;;;;;;;;;;;;;;;;;5058032;28;20277;-69
2022/01/21 04:22:54;;;;;;;;;;;;;;;;;;5058817;28;20276;-69
2022/01/21 04:25:19;;;;;;;;;;;;;;;;;;5057376;28;20390;-69
2022/01/21 04:27:44;;;;;;;;;;;;;;;;;;5057503;28;19916;-69
2022/01/21 04:30:09;;;;;;;;;;;;;;;;;;5057298;28;19994;-69
2022/01/21 04:32:35;;;;;;;;;;;;;;;;;;5058660;28;19913;-69
2022/01/21 04:35:00;;;;;;;;;;;;;;;;;;5056657;28;20288;-69
2022/01/21 04:37:25;;;;;;;;;;;;;;;;;;5058130;28;19947;-69
2022/01/21 04:39:57;;;;;;;;;;;;;;;;;;5056875;28;19944;-69
2022/01/21 04:47:45;;;;;;;;;;;;;;;;;;4973538;28;19918;-69
2022/01/21 04:50:13;;;;;;;;;;;;;;;;;;4977937;28;19980;-69
2022/01/21 04:52:38;;;;;;;;;;;;;;;;;;4975676;28;20302;-69
2022/01/21 04:55:03;;;;;;;;;;;;;;;;;;4975382;28;19918;-69
2022/01/21 04:57:29;;;;;;;;;;;;;;;;;;4975125;28;20013;-70
2022/01/21 04:59:54;;;;;;;;;;;;;;;;;;4978794;28;19914;-70
2022/01/21 05:02:19;;;;;;;;;;;;;;;;;;4979078;28;20081;-69
2022/01/21 05:04:44;;;;;;;;;;;;;;;;;;4978243;28;20051;-69
2022/01/21 05:07:12;;;;;;;;;;;;;;;;;;4976490;28;19945;-69
2022/01/21 05:09:38;;;;;;;;;;;;;;;;;;4977776;28;19945;-69
2022/01/21 05:12:03;;;;;;;;;;;;;;;;;;4976091;28;20111;-69
2022/01/21 05:17:06;;;;;;;;;;;;;;;;;;4979085;28;20381;-69
2022/01/21 05:19:31;;;;;;;;;;;;;;;;;;4980764;28;20158;-69
2022/01/21 05:21:57;;;;;;;;;;;;;;;;;;4982474;28;20241;-69
2022/01/21 05:24:22;;;;;;;;;;;;;;;;;;5052146;28;19939;-69
2022/01/21 05:26:56;;;;;;;;;;;;;;;;;;5061118;28;19916;-69
2022/01/21 05:29:21;;;;;;;;;;;;;;;;;;5060918;28;19912;-69
2022/01/21 05:31:46;;;;;;;;;;;;;;;;;;5061057;28;20059;-69
2022/01/21 05:34:11;;;;;;;;;;;;;;;;;;5060863;28;20319;-69
2022/01/21 05:36:40;;;;;;;;;;;;;;;;;;5060307;28;19916;-69
2022/01/21 05:39:05;;;;;;;;;;;;;;;;;;5059533;28;20139;-69
2022/01/21 05:41:30;;;;;;;;;;;;;;;;;;5060246;28;20372;-69
2022/01/21 05:44:03;;;;;;;;;;;;;;;;;;5059509;28;20343;-69
2022/01/21 05:48:59;;;;;;;;;;;;;;;;;;5059865;28;20345;-69
2022/01/21 05:51:24;;;;;;;;;;;;;;;;;;5057096;28;20065;-69
2022/01/21 05:53:49;;;;;;;;;;;;;;;;;;5059916;28;19916;-69
2022/01/21 05:56:14;;;;;;;;;;;;;;;;;;5060322;28;20007;-69
2022/01/21 05:58:40;;;;;;;;;;;;;;;;;;5059258;28;20336;-68
2022/01/21 06:01:05;;;;;;;;;;;;;;;;;;5058497;28;19930;-68
2022/01/21 06:03:30;;;;;;;;;;;;;;;;;;5057236;28;19928;-68
2022/01/21 06:05:55;;;;;;;;;;;;;;;;;;5060430;28;19917;-68
2022/01/21 06:08:20;;;;;;;;;;;;;;;;;;5060445;28;19974;-68
2022/01/21 06:10:45;;;;;;;;;;;;;;;;;;5059728;28;19924;-68
2022/01/21 06:13:15;;;;;;;;;;;;;;;;;;5060823;28;19909;-68
2022/01/21 06:15:40;;;;;;;;;;;;;;;;;;5060273;28;19921;-68
2022/01/21 06:18:05;;;;;;;;;;;;;;;;;;5059296;28;19916;-68
2022/01/21 06:20:30;;;;;;;;;;;;;;;;;;5060581;28;19917;-68
2022/01/21 06:22:55;;;;;;;;;;;;;;;;;;5060586;28;20057;-68
2022/01/21 06:25:20;;;;;;;;;;;;;;;;;;5059789;28;20190;-68
2022/01/21 06:27:46;;;;;;;;;;;;;;;;;;5059036;28;19920;-68
2022/01/21 06:30:11;;;;;;;;;;;;;;;;;;5059989;28;19966;-68
2022/01/21 06:32:36;;;;;;;;;;;;;;;;;;5060548;28;19916;-69
2022/01/21 06:35:01;;;;;;;;;;;;;;;;;;5060126;28;20547;-69
2022/01/21 06:37:26;;;;;;;;;;;;;;;;;;5060191;28;19916;-69
2022/01/21 06:39:51;;;;;;;;;;;;;;;;;;5060375;28;20045;-69
2022/01/21 06:42:22;;;;;;;;;;;;;;;;;;5059573;28;20190;-69
2022/01/21 06:44:47;;;;;;;;;;;;;;;;;;5060107;28;19913;-69
2022/01/21 06:47:12;;;;;;;;;;;;;;;;;;5060074;28;19923;-69
2022/01/21 06:49:37;;;;;;;;;;;;;;;;;;5059337;28;19991;-69
2022/01/21 06:52:02;;;;;;;;;;;;;;;;;;5059910;28;19956;-69
2022/01/21 06:54:28;;;;;;;;;;;;;;;;;;5059713;28;20226;-69
2022/01/21 06:56:53;;;;;;;;;;;;;;;;;;5059055;28;20395;-69
2022/01/21 06:59:18;;;;;;;;;;;;;;;;;;5058109;28;20105;-69
2022/01/21 07:01:43;;;;;;;;;;;;;;;;;;5059324;28;19915;-69
2022/01/21 07:04:08;;;;;;;;;;;;;;;;;;5057598;28;20144;-69
2022/01/21 07:06:33;;;;;;;;;;;;;;;;;;5059727;28;19909;-69
2022/01/21 07:08:58;;;;;;;;;;;;;;;;;;5061267;28;19916;-70
2022/01/21 07:11:24;;;;;;;;;;;;;;;;;;5061937;28;20015;-70
2022/01/21 07:13:49;;;;;;;;;;;;;;;;;;5059395;28;20012;-70
2022/01/21 07:16:14;;;;;;;;;;;;;;;;;;5058781;28;19956;-70
2022/01/21 07:18:39;;;;;;;;;;;;;;;;;;5059379;28;19920;-68
2022/01/21 07:21:04;;;;;;;;;;;;;;;;;;5058777;28;19909;-68
2022/01/21 07:23:29;;;;;;;;;;;;;;;;;;5057979;28;19920;-68
2022/01/21 07:25:54;;;;;;;;;;;;;;;;;;5057652;28;19972;-68
2022/01/21 07:28:20;;;;;;;;;;;;;;;;;;5058225;28;19913;-70
2022/01/21 07:30:45;;;;;;;;;;;;;;;;;;5057858;28;20475;-70
2022/01/21 07:33:10;;;;;;;;;;;;;;;;;;5058588;28;19916;-70
2022/01/21 07:35:35;;;;;;;;;;;;;;;;;;5058747;28;19925;-70
2022/01/21 07:38:01;;;;;;;;;;;;;;;;;;5056687;28;19959;-70
2022/01/21 07:40:26;;;;;;;;;;;;;;;;;;5056831;28;19973;-70
2022/01/21 07:42:51;;;;;;;;;;;;;;;;;;5058108;28;20288;-70
2022/01/21 07:45:16;;;;;;;;;;;;;;;;;;5057526;28;19979;-68
2022/01/21 07:47:41;;;;;;;;;;;;;;;;;;5057634;28;19923;-68
2022/01/21 07:50:06;;;;;;;;;;;;;;;;;;5056665;28;19919;-68
2022/01/21 07:52:31;;;;;;;;;;;;;;;;;;5057587;28;19996;-68
2022/01/21 07:54:56;;;;;;;;;;;;;;;;;;5057717;28;20208;-68
2022/01/21 07:57:22;;;;;;;;;;;;;;;;;;5058293;28;19919;-68
2022/01/21 07:59:47;;;;;;;;;;;;;;;;;;5057628;28;19912;-68
2022/01/21 08:02:12;;;;;;;;;;;;;;;;;;5056417;28;19920;-68
2022/01/21 08:04:37;;;;;;;;;;;;;;;;;;5057084;28;19919;-68
2022/01/21 08:07:02;;;;;;;;;;;;;;;;;;5058949;28;19974;-69
2022/01/21 08:09:37;;;;;;;;;;;;;;;;;;5057923;28;19920;-69
2022/01/21 08:12:02;;;;;;;;;;;;;;;;;;5058795;28;19913;-69
2022/01/21 08:14:27;;;;;;;;;;;;;;;;;;5057259;28;19912;-69
2022/01/21 08:16:54;;;;;;;;;;;;;;;;;;5057686;28;19921;-70
2022/01/21 08:19:19;;;;;;;;;;;;;;;;;;5058610;28;19916;-69
2022/01/21 08:21:44;;;;;;;;;;;;;;;;;;5058322;28;19919;-69
2022/01/21 08:24:09;;;;;;;;;;;;;;;;;;5057885;28;19999;-69
2022/01/21 08:26:35;;;;;;;;;;;;;;;;;;5057677;28;20336;-70
2022/01/21 08:29:00;;;;;;;;;;;;;;;;;;5057914;28;19912;-69
2022/01/21 08:31:25;;;;;;;;;;;;;;;;;;5058033;28;20332;-69
2022/01/21 08:33:50;;;;;;;;;;;;;;;;;;5057379;28;19920;-69
2022/01/21 08:36:16;;;;;;;;;;;;;;;;;;5057616;28;20796;-70
2022/01/21 08:38:41;;;;;;;;;;;;;;;;;;5057370;28;20500;-70
2022/01/21 08:41:06;;;;;;;;;;;;;;;;;;5058383;28;19962;-68
2022/01/21 08:43:31;;;;;;;;;;;;;;;;;;5057283;28;20003;-68
2022/01/21 08:45:56;;;;;;;;;;;;;;;;;;5056880;28;19994;-68
2022/01/21 08:48:21;;;;;;;;;;;;;;;;;;5057791;28;19926;-70
2022/01/21 08:50:46;;;;;;;;;;;;;;;;;;5060258;28;19912;-70
2022/01/21 08:55:55;;;;;;;;;;;;;;;;;;5058555;28;19993;-70
2022/01/21 08:58:20;;;;;;;;;;;;;;;;;;5061248;28;20240;-70
2022/01/21 09:00:46;;;;;;;;;;;;;;;;;;5061448;28;20104;-70
2022/01/21 09:03:11;;;;;;;;;;;;;;;;;;5059977;28;20023;-70
2022/01/21 09:05:36;;;;;;;;;;;;;;;;;;5060614;28;20355;-70
2022/01/21 09:08:01;;;;;;;;;;;;;;;;;;5061807;28;20701;-68
2022/01/21 09:10:26;;;;;;;;;;;;;;;;;;5061060;28;20535;-68
2022/01/21 09:12:51;;;;;;;;;;;;;;;;;;5061137;28;20805;-68
2022/01/21 09:15:23;;;;;;;;;;;;;;;;;;5061669;28;20316;-70
2022/01/21 09:17:48;;;;;;;;;;;;;;;;;;5061432;28;19913;-70
2022/01/21 09:20:13;;;;;;;;;;;;;;;;;;5060501;28;19913;-70
2022/01/21 09:22:38;;;;;;;;;;;;;;;;;;5061154;28;20005;-70
2022/01/21 09:25:04;;;;;;;;;;;;;;;;;;5060796;28;19927;-70
2022/01/21 09:27:29;;;;;;;;;;;;;;;;;;5060986;28;19912;-70
2022/01/21 09:29:54;;;;;;;;;;;;;;;;;;5060956;28;20173;-70
2022/01/21 09:32:19;;;;;;;;;;;;;;;;;;5060885;28;19912;-70
2022/01/21 09:34:44;;;;;;;;;;;;;;;;;;5060055;28;19927;-70
2022/01/21 09:37:09;;;;;;;;;;;;;;;;;;5060193;28;19924;-70
2022/01/21 09:39:34;;;;;;;;;;;;;;;;;;5060383;28;20352;-70
2022/01/21 09:42:00;;;;;;;;;;;;;;;;;;5060867;28;19990;-70
2022/01/21 09:44:25;;;;;;;;;;;;;;;;;;5059767;28;19912;-70
2022/01/21 09:46:50;;;;;;;;;;;;;;;;;;5060249;28;19913;-70
2022/01/21 09:51:47;;;;;;;;;;;;;;;;;;5056647;28;20300;-70
2022/01/21 09:54:13;;;;;;;;;;;;;;;;;;5058613;28;19916;-70
2022/01/21 09:56:38;;;;;;;;;;;;;;;;;;5060148;28;20439;-70
2022/01/21 09:59:03;;;;;;;;;;;;;;;;;;5060362;28;20469;-70
2022/01/21 10:01:28;;;;;;;;;;;;;;;;;;5059250;28;20482;-70
2022/01/21 10:03:54;;;;;;;;;;;;;;;;;;5059298;28;20104;-70
2022/01/21 10:06:19;;;;;;;;;;;;;;;;;;5059958;28;20376;-70
2022/01/21 10:08:44;;;;;;;;;;;;;;;;;;5059837;28;20230;-70
2022/01/21 10:11:09;;;;;;;;;;;;;;;;;;5060808;28;20524;-70
2022/01/21 10:13:35;;;;;;;;;;;;;;;;;;5059609;28;19924;-70
2022/01/21 10:16:01;;;;;;;;;;;;;;;;;;5059143;28;20271;-70
2022/01/21 10:18:26;;;;;;;;;;;;;;;;;;5059869;28;20237;-70
2022/01/21 10:20:51;;;;;;;;;;;;;;;;;;5059500;28;19977;-70
2022/01/21 10:23:16;;;;;;;;;;;;;;;;;;5060378;28;19912;-70
2022/01/21 10:25:41;;;;;;;;;;;;;;;;;;5058787;28;19941;-68
2022/01/21 10:28:06;;;;;;;;;;;;;;;;;;5059735;28;19912;-68
2022/01/21 10:30:31;;;;;;;;;;;;;;;;;;5059115;28;20019;-68
2022/01/21 10:32:56;;;;;;;;;;;;;;;;;;5059695;28;19978;-70
2022/01/21 10:35:22;;;;;;;;;;;;;;;;;;5058595;28;19932;-68
2022/01/21 10:37:47;;;;;;;;;;;;;;;;;;5059145;28;19912;-68
2022/01/21 10:40:12;;;;;;;;;;;;;;;;;;5059818;28;19923;-68
2022/01/21 10:42:37;;;;;;;;;;;;;;;;;;5058560;28;19943;-68
2022/01/21 10:45:03;;;;;;;;;;;;;;;;;;5053811;28;20289;-68
2022/01/21 10:47:28;;;;;;;;;;;;;;;;;;5058289;28;19935;-68
2022/01/21 10:49:53;;;;;;;;;;;;;;;;;;5058880;28;20337;-68
2022/01/21 10:52:18;;;;;;;;;;;;;;;;;;5058614;28;19912;-68
2022/01/21 10:54:43;;;;;;;;;;;;;;;;;;5057360;28;19913;-68
2022/01/21 10:57:09;;;;;;;;;;;;;;;;;;5056967;28;20065;-68
2022/01/21 10:59:34;;;;;;;;;;;;;;;;;;5058411;28;19927;-70
2022/01/21 11:01:59;;;;;;;;;;;;;;;;;;5058717;28;20202;-68
2022/01/21 11:04:24;;;;;;;;;;;;;;;;;;5059058;28;20470;-68
2022/01/21 11:06:52;;;;;;;;;;;;;;;;;;5058865;28;19942;-68
2022/01/21 11:09:17;;;;;;;;;;;;;;;;;;5058162;28;20387;-68
2022/01/21 11:11:42;;;;;;;;;;;;;;;;;;5058788;28;19913;-68
2022/01/21 11:14:08;;;;;;;;;;;;;;;;;;5057653;28;20219;-68
2022/01/21 11:16:33;;;;;;;;;;;;;;;;;;5057367;28;19931;-68
2022/01/21 11:19:12;;;;;;;;;;;;;;;;;;5058254;28;20390;-68
2022/01/21 11:21:38;;;;;;;;;;;;;;;;;;5059132;28;19915;-68
2022/01/21 11:24:03;;;;;;;;;;;;;;;;;;5058845;28;19921;-68
2022/01/21 11:26:28;;;;;;;;;;;;;;;;;;5057696;28;19978;-68
2022/01/21 11:28:54;;;;;;;;;;;;;;;;;;5058000;28;20403;-68
2022/01/21 11:31:19;;;;;;;;;;;;;;;;;;5058791;28;19986;-68
2022/01/21 11:33:44;;;;;;;;;;;;;;;;;;5058128;28;19913;-68
2022/01/21 11:36:09;;;;;;;;;;;;;;;;;;5058312;28;19924;-68
2022/01/21 11:38:34;;;;;;;;;;;;;;;;;;5057934;28;19913;-68
2022/01/21 11:40:59;;;;;;;;;;;;;;;;;;5058440;28;20011;-68
2022/01/21 11:43:24;;;;;;;;;;;;;;;;;;5057638;28;20019;-68
2022/01/21 11:50:49;;;;;;;;;;;;;;;;;;5056446;28;19912;-68
2022/01/21 11:53:14;;;;;;;;;;;;;;;;;;5058116;28;19908;-68
2022/01/21 11:55:41;;;;;;;;;;;;;;;;;;5056213;28;20173;-68
2022/01/21 11:58:06;;;;;;;;;;;;;;;;;;5058403;28;20112;-68
2022/01/21 12:00:31;;;;;;;;;;;;;;;;;;5056625;28;19913;-68
2022/01/21 12:02:56;;;;;;;;;;;;;;;;;;5058092;28;19928;-68
2022/01/21 12:05:21;;;;;;;;;;;;;;;;;;5058044;28;19935;-68
2022/01/21 12:07:48;;;;;;;;;;;;;;;;;;5057603;28;20379;-68
2022/01/21 12:10:14;;;;;;;;;;;;;;;;;;5057538;28;19912;-69
2022/01/21 12:12:39;;;;;;;;;;;;;;;;;;5057778;28;19993;-68
2022/01/21 12:15:05;;;;;;;;;;;;;;;;;;5057280;28;20328;-69
2022/01/21 12:17:31;;;;;;;;;;;;;;;;;;5057971;28;20364;-68
2022/01/21 12:19:58;;;;;;;;;;;;;;;;;;5057197;28;19974;-68
2022/01/21 12:22:24;;;;;;;;;;;;;;;;;;5058013;28;19989;-68
2022/01/21 12:24:51;;;;;;;;;;;;;;;;;;5056409;28;19920;-68
2022/01/21 12:27:16;;;;;;;;;;;;;;;;;;5058048;28;19916;-68
2022/01/21 12:29:41;;;;;;;;;;;;;;;;;;5056956;28;20315;-68
2022/01/21 12:32:23;;;;;;;;;;;;;;;;;;5057984;28;19912;-68
2022/01/21 12:34:48;;;;;;;;;;;;;;;;;;5053660;28;20376;-68
2022/01/21 12:37:16;;;;;;;;;;;;;;;;;;5058017;28;19927;-68
2022/01/21 12:39:41;;;;;;;;;;;;;;;;;;5057144;28;19923;-68
2022/01/21 12:42:06;;;;;;;;;;;;;;;;;;5057485;28;20161;-68
2022/01/21 12:44:32;;;;;;;;;;;;;;;;;;5057312;28;20077;-68
2022/01/21 12:46:57;;;;;;;;;;;;;;;;;;5057758;28;19923;-68
2022/01/21 12:49:22;;;;;;;;;;;;;;;;;;5057996;28;19916;-68
2022/01/21 12:57:11;;;;;;;;;;;;;;;;;;5056252;28;19926;-68
2022/01/21 12:59:36;;;;;;;;;;;;;;;;;;5056965;28;19912;-68
2022/01/21 13:02:05;;;;;;;;;;;;;;;;;;5056683;28;20015;-68
2022/01/21 13:04:31;;;;;;;;;;;;;;;;;;5056778;28;20420;-68
2022/01/21 13:06:57;;;;;;;;;;;;;;;;;;5056683;28;19952;-68
2022/01/21 13:09:23;;;;;;;;;;;;;;;;;;5057309;28;19921;-68
2022/01/21 13:11:48;;;;;;;;;;;;;;;;;;5056500;28;20024;-68
2022/01/21 13:14:35;;;;;;;;;;;;;;;;;;5057318;28;19974;-68
2022/01/21 13:17:00;;;;;;;;;;;;;;;;;;5057177;28;20160;-68
2022/01/21 13:19:25;;;;;;;;;;;;;;;;;;5056841;28;20246;-68
2022/01/21 13:21:50;;;;;;;;;;;;;;;;;;5051421;28;20031;-68
2022/01/21 13:24:51;;;;;;;;;;;;;;;;;;5057239;28;20477;-68
2022/01/21 13:27:06;;;;;;;;;;;;;;;;;;5044311;28;20364;-68
2022/01/21 13:29:32;;;;;;;;;;;;;;;;;;5056789;28;19974;-68
2022/01/21 13:31:57;;;;;;;;;;;;;;;;;;5056644;28;19927;-68
2022/01/21 13:34:22;;;;;;;;;;;;;;;;;;5057055;28;19920;-68
2022/01/21 13:36:47;;;;;;;;;;;;;;;;;;5059596;28;19952;-68
2022/01/21 13:39:12;;;;;;;;;;;;;;;;;;5057434;28;20450;-68
2022/01/21 13:41:37;;;;;;;;;;;;;;;;;;5061065;28;20166;-68
2022/01/21 13:44:02;;;;;;;;;;;;;;;;;;5057087;28;19927;-68
2022/01/21 13:46:28;;;;;;;;;;;;;;;;;;5059788;28;19912;-68
2022/01/21 13:48:53;;;;;;;;;;;;;;;;;;5057201;28;20353;-68
2022/01/21 13:51:18;;;;;;;;;;;;;;;;;;5056379;28;20922;-68
2022/01/21 13:53:44;;;;;;;;;;;;;;;;;;5056510;28;20447;-68
2022/01/21 13:56:11;;;;;;;;;;;;;;;;;;5055483;28;19961;-68
2022/01/21 13:58:36;;;;;;;;;;;;;;;;;;5057425;28;19928;-69
2022/01/21 14:01:01;;;;;;;;;;;;;;;;;;5056751;28;20532;-68
2022/01/21 14:03:28;;;;;;;;;;;;;;;;;;5056909;28;20009;-68
2022/01/21 14:05:53;;;;;;;;;;;;;;;;;;5057715;28;20011;-68
2022/01/21 14:08:18;;;;;;;;;;;;;;;;;;5057172;28;20022;-68
2022/01/21 14:10:43;;;;;;;;;;;;;;;;;;5056618;28;20103;-68
2022/01/21 14:13:08;;;;;;;;;;;;;;;;;;5057591;28;19912;-68
2022/01/21 14:15:33;;;;;;;;;;;;;;;;;;5056517;28;20487;-68
2022/01/21 14:17:58;;;;;;;;;;;;;;;;;;5057592;28;20341;-68
2022/01/21 14:20:24;;;;;;;;;;;;;;;;;;5056798;28;20521;-68
2022/01/21 14:22:50;;;;;;;;;;;;;;;;;;5056125;28;19951;-68
2022/01/21 14:25:15;;;;;;;;;;;;;;;;;;5057541;28;20023;-68
2022/01/21 14:27:40;;;;;;;;;;;;;;;;;;5056974;28;19916;-68
2022/01/21 14:30:05;;;;;;;;;;;;;;;;;;5056579;28;19928;-68
2022/01/21 14:32:35;;;;;;;;;;;;;;;;;;5056872;28;20202;-68
2022/01/21 14:35:00;;;;;;;;;;;;;;;;;;5055569;28;20003;-68
2022/01/21 14:37:26;;;;;;;;;;;;;;;;;;5054618;28;20024;-68
2022/01/21 14:39:51;;;;;;;;;;;;;;;;;;5054008;28;20215;-70
2022/01/21 14:42:16;;;;;;;;;;;;;;;;;;5050590;28;19981;-70
2022/01/21 14:44:41;;;;;;;;;;;;;;;;;;5056893;28;19920;-70
2022/01/21 14:47:06;;;;;;;;;;;;;;;;;;5055336;28;20125;-70
2022/01/21 14:49:32;;;;;;;;;;;;;;;;;;5055059;28;19916;-70
2022/01/21 14:52:04;;;;;;;;;;;;;;;;;;5056165;28;20089;-70
2022/01/21 14:54:29;;;;;;;;;;;;;;;;;;5056435;28;20392;-70
2022/01/21 14:56:54;;;;;;;;;;;;;;;;;;5055538;28;19924;-70
2022/01/21 14:59:19;;;;;;;;;;;;;;;;;;5055423;28;20300;-70
2022/01/21 15:01:44;;;;;;;;;;;;;;;;;;5056141;28;19920;-70
2022/01/21 15:04:09;;;;;;;;;;;;;;;;;;5054667;28;20161;-70
2022/01/21 15:06:35;;;;;;;;;;;;;;;;;;5056626;28;19921;-70
2022/01/21 15:09:01;;;;;;;;;;;;;;;;;;5055980;28;20376;-70
2022/01/21 15:16:35;;;;;;;;;;;;;;;;;;5054754;28;20030;-70
2022/01/21 15:19:01;;;;;;;;;;;;;;;;;;5056036;28;20870;-70
2022/01/21 15:21:26;;;;;;;;;;;;;;;;;;5055910;28;19923;-70
2022/01/21 15:23:51;;;;;;;;;;;;;;;;;;5055813;28;19920;-70
2022/01/21 15:26:16;;;;;;;;;;;;;;;;;;5055310;28;20008;-70
2022/01/21 15:28:41;;;;;;;;;;;;;;;;;;5055673;28;19975;-72
2022/01/21 15:31:06;;;;;;;;;;;;;;;;;;5056222;28;20353;-70
2022/01/21 15:33:32;;;;;;;;;;;;;;;;;;5054759;28;20361;-70
2022/01/21 15:35:57;;;;;;;;;;;;;;;;;;5055011;28;19920;-68
2022/01/21 15:38:22;;;;;;;;;;;;;;;;;;5055393;28;20080;-67
2022/01/21 15:40:47;;;;;;;;;;;;;;;;;;5053979;28;19921;-67
2022/01/21 15:43:12;;;;;;;;;;;;;;;;;;5055811;28;19935;-70
2022/01/21 15:45:37;;;;;;;;;;;;;;;;;;5053712;28;19923;-70
2022/01/21 15:48:03;;;;;;;;;;;;;;;;;;5052991;28;20340;-70
2022/01/21 15:50:28;;;;;;;;;;;;;;;;;;5055389;28;19913;-70
2022/01/21 15:52:53;;;;;;;;;;;;;;;;;;5054675;28;20335;-70
2022/01/21 15:55:19;;;;;;;;;;;;;;;;;;5054610;28;20387;-70
2022/01/21 15:57:44;;;;;;;;;;;;;;;;;;5053792;28;20444;-70
2022/01/21 16:00:09;;;;;;;;;;;;;;;;;;5053422;28;20374;-70
2022/01/21 16:02:34;;;;;;;;;;;;;;;;;;5052135;28;20145;-70
2022/01/21 16:04:59;;;;;;;;;;;;;;;;;;5053092;28;21175;-70
2022/01/21 16:07:25;;;;;;;;;;;;;;;;;;5054980;28;19916;-70
2022/01/21 16:09:50;;;;;;;;;;;;;;;;;;5055696;28;20119;-70
2022/01/21 16:12:15;;;;;;;;;;;;;;;;;;5056237;28;20066;-70
2022/01/21 16:14:40;;;;;;;;;;;;;;;;;;5055429;28;19916;-70
2022/01/21 16:17:05;;;;;;;;;;;;;;;;;;5055455;28;19978;-70
2022/01/21 16:19:30;;;;;;;;;;;;;;;;;;5055545;28;20442;-70
2022/01/21 16:21:55;;;;;;;;;;;;;;;;;;5055503;28;19993;-70
2022/01/21 16:24:21;;;;;;;;;;;;;;;;;;5055499;28;19939;-67
2022/01/21 16:26:46;;;;;;;;;;;;;;;;;;5055215;28;19912;-67
2022/01/21 16:29:11;;;;;;;;;;;;;;;;;;5055470;28;20343;-70
2022/01/21 16:31:37;;;;;;;;;;;;;;;;;;5055224;28;19916;-70
2022/01/21 16:34:02;;;;;;;;;;;;;;;;;;5055519;28;19923;-70
2022/01/21 16:36:27;;;;;;;;;;;;;;;;;;5055209;28;19927;-70
2022/01/21 16:38:52;;;;;;;;;;;;;;;;;;5053666;28;19917;-70
2022/01/21 16:41:19;;;;;;;;;;;;;;;;;;5049447;28;19968;-70
2022/01/21 16:43:44;;;;;;;;;;;;;;;;;;5050125;28;19936;-67
2022/01/21 16:46:09;;;;;;;;;;;;;;;;;;5054695;28;19916;-67
2022/01/21 16:48:34;;;;;;;;;;;;;;;;;;5053558;28;19924;-67
2022/01/21 16:50:59;;;;;;;;;;;;;;;;;;5045417;28;20328;-68
2022/01/21 16:53:24;;;;;;;;;;;;;;;;;;5044308;28;20009;-68
2022/01/21 16:55:50;;;;;;;;;;;;;;;;;;5053385;28;20021;-68
2022/01/21 16:58:15;;;;;;;;;;;;;;;;;;5053240;28;19944;-68
2022/01/21 17:00:40;;;;;;;;;;;;;;;;;;5053900;28;19992;-68
2022/01/21 17:03:05;;;;;;;;;;;;;;;;;;5053907;28;20013;-68
2022/01/21 17:05:30;;;;;;;;;;;;;;;;;;5054139;28;19920;-68
2022/01/21 17:07:55;;;;;;;;;;;;;;;;;;5053225;28;20283;-70
2022/01/21 17:10:21;;;;;;;;;;;;;;;;;;5053110;28;19924;-68
2022/01/21 17:12:46;;;;;;;;;;;;;;;;;;5057144;28;20227;-69
2022/01/21 17:15:11;;;;;;;;;;;;;;;;;;5057114;28;19947;-68
2022/01/21 17:17:36;;;;;;;;;;;;;;;;;;5056737;28;20250;-68
2022/01/21 17:20:01;;;;;;;;;;;;;;;;;;5037762;28;19921;-68
2022/01/21 17:22:26;;;;;;;;;;;;;;;;;;5058995;28;19924;-68
2022/01/21 17:24:52;;;;;;;;;;;;;;;;;;5057749;28;19916;-69
2022/01/21 17:27:18;;;;;;;;;;;;;;;;;;5056488;28;19939;-69
2022/01/21 17:29:43;;;;;;;;;;;;;;;;;;5057188;28;19917;-68
2022/01/21 17:32:09;;;;;;;;;;;;;;;;;;5058766;28;20316;-68
2022/01/21 17:34:35;;;;;;;;;;;;;;;;;;5058018;28;20166;-68
2022/01/21 17:37:00;;;;;;;;;;;;;;;;;;5058695;28;19920;-68
2022/01/21 17:39:25;;;;;;;;;;;;;;;;;;5051891;28;20170;-68
2022/01/21 17:41:50;;;;;;;;;;;;;;;;;;5056863;28;20042;-68
2022/01/21 17:44:18;;;;;;;;;;;;;;;;;;5058317;28;19927;-68